createdAt,value
2019-03-21T15:22:30.884Z,24.00
2019-03-21T15:23:36.074Z,25.20
2019-03-21T15:24:28.942Z,25.40
2019-03-21T15:25:27.955Z,25.60
2019-03-21T15:26:27.896Z,28.30
2019-03-21T15:27:27.797Z,25.30
2019-03-21T15:28:27.806Z,23.90
2019-03-21T15:29:27.772Z,25.60
2019-03-21T15:30:27.761Z,25.60
2019-03-21T15:31:27.809Z,25.70
2019-03-21T15:32:27.751Z,25.80
2019-03-21T15:33:27.742Z,25.40
2019-03-21T15:34:27.769Z,24.80
2019-03-21T15:35:27.730Z,25.10
2019-03-21T15:36:56.207Z,25.50
2019-03-21T15:37:27.689Z,26.40
2019-03-21T15:38:27.973Z,26.00
2019-03-21T15:39:27.668Z,27.80
2019-03-21T15:40:27.692Z,28.00
2019-03-21T15:41:35.265Z,27.70
2019-03-21T15:42:27.632Z,28.80
2019-03-21T15:43:27.621Z,28.00
2019-03-21T15:44:27.609Z,28.40
2019-03-21T15:45:27.604Z,29.40
2019-03-21T15:46:38.243Z,29.60
2019-03-21T15:47:27.614Z,28.90
2019-03-21T15:48:27.576Z,29.10
2019-03-21T15:49:27.558Z,28.90
2019-03-21T15:50:27.545Z,28.30
2019-03-21T15:51:37.204Z,28.30
2019-03-21T15:52:27.536Z,28.40
2019-03-21T15:53:27.512Z,27.80
2019-03-21T15:54:27.523Z,29.20
2019-03-21T15:55:27.486Z,28.80
2019-03-21T15:56:32.717Z,28.20
2019-03-21T15:57:27.490Z,28.20
2019-03-21T15:58:27.482Z,28.90
2019-03-21T15:59:27.442Z,27.50
2019-03-21T16:00:27.436Z,28.00
2019-03-21T16:01:27.553Z,29.60
2019-03-21T16:02:27.418Z,30.60
2019-03-21T16:03:27.400Z,28.80
2019-03-21T16:04:27.394Z,30.20
2019-03-21T16:05:27.418Z,29.60
2019-03-21T16:06:27.372Z,29.50
2019-03-21T16:12:34.198Z,29.70
2019-03-21T16:13:32.063Z,29.40
2019-03-21T16:14:32.087Z,29.50
2019-03-21T16:15:32.019Z,29.90
2019-03-21T16:16:32.013Z,29.60
2019-03-21T16:17:32.010Z,30.30
2019-03-21T16:20:36.260Z,30.90
2019-03-21T16:21:36.273Z,30.90
2019-03-21T16:22:36.229Z,29.60
2019-03-21T16:24:09.698Z,31.30
2019-03-21T16:24:36.227Z,32.10
2019-03-21T16:25:36.279Z,30.60
2019-03-21T16:26:36.959Z,30.60
2019-03-21T16:27:36.153Z,30.00
2019-03-21T16:28:47.042Z,30.40
2019-03-21T16:29:36.125Z,29.70
2019-03-21T16:30:36.114Z,30.90
2019-03-21T16:31:36.151Z,31.10
2019-03-21T16:32:36.097Z,30.00
2019-03-21T16:33:50.478Z,31.10
2019-03-21T16:34:36.078Z,31.40
2019-03-21T16:35:36.064Z,31.00
2019-03-21T16:36:36.076Z,31.50
2019-03-21T16:37:36.048Z,32.50
2019-03-21T16:41:52.995Z,31.60
2019-03-21T16:42:52.987Z,32.60
2019-03-21T16:43:52.999Z,33.20
2019-03-21T16:44:52.955Z,33.40
2019-03-21T16:45:52.949Z,31.90
2019-03-21T16:46:52.965Z,32.30
2019-03-21T16:47:52.938Z,32.70
2019-03-21T16:48:52.937Z,31.90
2019-03-21T16:50:07.678Z,32.10
2019-03-21T16:50:52.878Z,32.80
2019-03-21T16:51:52.832Z,33.10
2019-03-21T16:52:52.821Z,32.70
2019-03-21T16:53:52.871Z,34.20
2019-03-21T16:54:59.692Z,33.60
2019-03-21T16:55:52.793Z,33.40
2019-03-21T16:56:52.779Z,34.20
2019-03-21T16:57:52.762Z,33.20
2019-03-21T16:58:52.798Z,34.10
2019-03-21T17:00:12.686Z,33.80
2019-03-21T17:00:52.736Z,34.10
2019-03-21T17:01:52.732Z,33.90
2019-03-21T17:02:52.708Z,32.70
2019-03-21T17:03:52.722Z,33.90
2019-03-21T17:04:52.685Z,34.40
2019-03-21T17:06:11.686Z,34.40
2019-03-21T17:06:52.662Z,34.10
2019-03-21T17:07:52.656Z,34.10
2019-03-21T17:08:52.647Z,34.30
2019-03-21T17:09:52.641Z,34.30
2019-03-21T17:10:57.217Z,34.90
2019-03-21T17:11:52.626Z,33.20
2019-03-21T17:12:52.596Z,33.80
2019-03-21T17:13:52.609Z,34.70
2019-03-21T17:14:52.660Z,33.90
2019-03-21T17:16:07.186Z,33.90
2019-03-21T17:16:52.548Z,34.10
2019-03-21T17:17:52.552Z,33.90
2019-03-21T17:18:52.527Z,34.40
2019-03-21T17:19:52.533Z,34.50
2019-03-21T17:20:59.191Z,34.30
2019-03-21T17:21:52.496Z,34.70
2019-03-21T17:22:52.481Z,35.20
2019-03-21T17:23:52.519Z,34.60
2019-03-21T17:24:52.460Z,35.70
2019-03-21T17:25:52.507Z,34.60
2019-03-21T17:26:55.648Z,34.90
2019-03-21T17:27:54.637Z,35.30
2019-03-21T17:28:52.414Z,34.10
2019-03-21T17:29:52.407Z,35.20
2019-03-21T17:30:52.425Z,36.00
2019-03-21T17:32:00.687Z,35.60
2019-03-21T17:32:52.371Z,35.20
2019-03-21T17:33:52.381Z,35.80
2019-03-21T17:34:52.347Z,37.60
2019-03-21T17:35:52.364Z,37.00
2019-03-21T17:37:27.663Z,37.50
2019-03-21T17:37:52.322Z,38.30
2019-03-21T17:38:52.301Z,37.60
2019-03-21T17:39:52.288Z,39.10
2019-03-21T17:40:52.293Z,37.90
2019-03-21T17:41:54.192Z,39.60
2019-03-21T17:42:52.258Z,40.20
2019-03-21T17:43:52.252Z,41.20
2019-03-21T17:44:52.238Z,41.10
2019-03-21T17:45:52.232Z,41.60
2019-03-21T17:46:55.726Z,40.30
2019-03-21T17:47:52.205Z,39.60
2019-03-21T17:48:52.262Z,40.30
2019-03-21T17:49:52.177Z,37.80
2019-03-21T17:50:52.172Z,38.70
2019-03-21T17:51:52.193Z,39.30
2019-03-21T17:52:52.163Z,40.10
2019-03-21T17:53:52.135Z,42.00
2019-03-21T17:54:52.137Z,42.10
2019-03-21T17:55:52.115Z,41.90
2019-03-21T17:56:52.153Z,40.50
2019-03-21T17:57:52.104Z,40.00
2019-03-21T17:58:52.089Z,40.10
2019-03-21T17:59:52.068Z,38.80
2019-03-21T18:00:52.094Z,39.50
2019-03-21T18:01:55.159Z,39.90
2019-03-21T18:02:52.038Z,39.10
2019-03-21T18:03:52.047Z,39.40
2019-03-21T18:04:52.010Z,39.90
2019-03-21T18:05:52.018Z,39.10
2019-03-21T18:06:52.027Z,39.20
2019-03-21T18:07:51.986Z,38.70
2019-03-21T18:08:51.965Z,39.70
2019-03-21T18:09:51.957Z,39.70
2019-03-21T18:10:51.943Z,39.20
2019-03-21T18:11:51.977Z,39.50
2019-03-21T18:15:26.545Z,39.90
2019-03-21T18:16:26.129Z,42.80
2019-03-21T18:17:26.247Z,42.10
2019-03-21T18:18:26.153Z,43.70
2019-03-21T18:19:26.258Z,44.50
2019-03-21T18:20:26.067Z,44.30
2019-03-21T18:21:26.075Z,44.50
2019-03-21T18:22:26.082Z,47.30
2019-03-21T18:23:26.029Z,46.60
2019-03-21T18:24:26.036Z,50.90
2019-03-21T18:25:26.056Z,51.90
2019-03-21T18:26:25.991Z,50.20
2019-03-21T18:27:26.013Z,50.70
2019-03-21T18:28:26.022Z,50.60
2019-03-21T18:29:25.949Z,51.00
2019-03-21T18:30:25.987Z,51.20
2019-03-21T18:31:25.938Z,50.40
2019-03-21T18:32:25.957Z,49.60
2019-03-21T18:33:26.020Z,50.90
2019-03-21T18:34:25.910Z,50.60
2019-03-21T18:35:25.885Z,47.80
2019-03-21T18:36:25.927Z,47.10
2019-03-21T18:37:25.914Z,47.10
2019-03-21T18:38:25.900Z,46.80
2019-03-21T18:39:25.882Z,46.60
2019-03-21T18:40:25.867Z,46.20
2019-03-21T18:41:25.819Z,46.70
2019-03-21T18:42:25.909Z,49.10
2019-03-21T18:43:25.800Z,49.20
2019-03-21T18:44:25.793Z,50.50
2019-03-21T18:45:25.779Z,47.80
2019-03-21T18:46:25.765Z,47.10
2019-03-21T18:47:25.798Z,47.10
2019-03-21T18:48:25.790Z,46.80
2019-03-21T18:49:25.732Z,46.20
2019-03-21T18:50:25.725Z,46.20
2019-03-21T18:51:25.715Z,45.70
2019-03-21T18:52:25.736Z,45.10
2019-03-21T18:53:25.690Z,46.30
2019-03-21T18:54:25.682Z,45.70
2019-03-21T18:55:25.695Z,45.60
2019-03-21T18:56:25.659Z,46.50
2019-03-21T18:57:25.730Z,46.60
2019-03-21T18:58:25.667Z,46.40
2019-03-21T18:59:25.637Z,46.90
2019-03-21T19:00:25.614Z,47.10
2019-03-21T19:01:25.597Z,45.70
2019-03-21T19:02:25.623Z,47.40
2019-03-21T19:03:25.638Z,48.20
2019-03-21T19:04:25.576Z,48.60
2019-03-21T19:05:25.559Z,47.10
2019-03-21T19:06:25.542Z,49.80
2019-03-21T19:07:25.580Z,48.70
2019-03-21T19:08:25.519Z,50.00
2019-03-21T19:09:25.540Z,51.30
2019-03-21T19:10:25.509Z,51.20
2019-03-21T19:11:25.493Z,52.80
2019-03-21T19:12:25.518Z,53.10
2019-03-21T19:13:25.459Z,54.20
2019-03-21T19:14:25.477Z,52.70
2019-03-21T19:15:25.443Z,51.30
2019-03-21T19:16:25.501Z,51.90
2019-03-21T19:17:25.463Z,50.30
2019-03-21T19:18:25.412Z,48.30
2019-03-21T19:19:25.401Z,48.50
2019-03-21T19:20:25.384Z,48.70
2019-03-21T19:21:25.383Z,50.80
2019-03-21T19:22:25.470Z,50.90
2019-03-21T19:23:25.357Z,51.60
2019-03-21T19:24:25.337Z,52.40
2019-03-21T19:25:25.323Z,53.90
2019-03-21T19:26:25.326Z,58.10
2019-03-21T19:27:25.345Z,54.30
2019-03-21T19:28:25.291Z,55.60
2019-03-21T19:29:25.297Z,54.50
2019-03-21T19:30:25.282Z,53.10
2019-03-21T19:31:25.288Z,54.20
2019-03-21T19:32:25.284Z,54.00
2019-03-21T19:33:25.234Z,52.20
2019-03-21T19:34:25.231Z,52.30
2019-03-21T19:35:25.262Z,51.60
2019-03-21T19:36:25.202Z,53.50
2019-03-21T19:37:25.236Z,53.90
2019-03-21T19:38:25.183Z,53.30
2019-03-21T19:39:25.170Z,51.50
2019-03-21T19:40:25.173Z,53.40
2019-03-21T19:41:25.154Z,52.90
2019-03-21T19:42:25.173Z,53.50
2019-03-21T19:43:25.129Z,54.60
2019-03-21T19:44:25.108Z,53.70
2019-03-21T19:45:25.108Z,53.20
2019-03-21T19:46:25.132Z,55.90
2019-03-21T19:47:30.218Z,52.60
2019-03-21T19:48:26.073Z,51.90
2019-03-21T19:49:25.062Z,55.40
2019-03-21T19:50:25.063Z,55.70
2019-03-21T19:51:25.080Z,55.50
2019-03-21T19:52:25.065Z,54.60
2019-03-21T19:53:25.018Z,54.60
2019-03-21T19:54:25.054Z,52.80
2019-03-21T19:55:30.800Z,52.60
2019-03-21T19:56:25.985Z,51.70
2019-03-21T19:57:25.002Z,53.50
2019-03-21T19:58:24.962Z,53.80
2019-03-21T19:59:24.940Z,51.30
2019-03-21T20:00:24.983Z,54.60
2019-03-21T20:01:24.929Z,55.40
2019-03-21T20:02:24.927Z,54.50
2019-03-21T20:03:25.040Z,54.40
2019-03-21T20:04:24.903Z,56.40
2019-03-21T20:05:24.876Z,58.50
2019-03-21T20:06:24.911Z,61.20
2019-03-21T20:07:24.897Z,57.40
2019-03-21T20:08:24.921Z,56.30
2019-03-21T20:09:24.842Z,57.60
2019-03-21T20:10:24.823Z,57.40
2019-03-21T20:11:24.807Z,59.70
2019-03-21T20:12:24.795Z,58.30
2019-03-21T20:13:24.833Z,58.80
2019-03-21T20:14:24.846Z,57.50
2019-03-21T20:15:24.776Z,60.30
2019-03-21T20:16:24.758Z,60.90
2019-03-21T20:17:24.743Z,60.50
2019-03-21T20:18:24.775Z,60.10
2019-03-21T20:19:24.721Z,58.70
2019-03-21T20:20:24.710Z,58.30
2019-03-21T20:21:24.746Z,57.50
2019-03-21T20:22:24.693Z,58.10
2019-03-21T20:23:24.721Z,59.30
2019-03-21T20:24:24.667Z,56.20
2019-03-21T20:25:24.656Z,57.00
2019-03-21T20:26:24.649Z,57.90
2019-03-21T20:27:24.641Z,56.40
2019-03-21T20:28:24.689Z,58.70
2019-03-21T20:29:24.613Z,58.10
2019-03-21T20:30:24.599Z,56.10
2019-03-21T20:31:24.585Z,57.60
2019-03-21T20:32:24.576Z,56.00
2019-03-21T20:33:24.613Z,54.70
2019-03-21T20:34:24.571Z,54.70
2019-03-21T20:35:24.557Z,58.10
2019-03-21T20:36:24.583Z,60.80
2019-03-21T20:37:24.521Z,58.80
2019-03-21T20:38:24.587Z,59.00
2019-03-21T20:39:24.506Z,58.50
2019-03-21T20:40:24.495Z,58.10
2019-03-21T20:41:24.485Z,54.80
2019-03-21T20:42:24.535Z,57.50
2019-03-21T20:43:24.503Z,54.90
2019-03-21T20:44:24.449Z,55.30
2019-03-21T20:45:24.437Z,53.10
2019-03-21T20:46:24.421Z,55.00
2019-03-21T20:47:24.416Z,58.00
2019-03-21T20:48:24.475Z,53.10
2019-03-21T20:49:24.406Z,53.50
2019-03-21T20:50:24.424Z,53.80
2019-03-21T20:51:24.378Z,54.90
2019-03-21T20:52:24.367Z,59.50
2019-03-21T20:53:24.406Z,55.40
2019-03-21T20:54:24.353Z,58.40
2019-03-21T20:55:24.385Z,59.70
2019-03-21T20:56:24.365Z,58.20
2019-03-21T20:57:24.306Z,58.60
2019-03-21T20:58:24.346Z,60.10
2019-03-21T20:59:24.280Z,60.40
2019-03-21T21:00:24.278Z,59.50
2019-03-21T21:01:24.272Z,61.40
2019-03-21T21:02:24.265Z,61.20
2019-03-21T21:03:24.326Z,60.90
2019-03-21T21:04:24.227Z,61.40
2019-03-21T21:05:24.219Z,59.70
2019-03-21T21:06:24.214Z,59.90
2019-03-21T21:07:24.212Z,60.40
2019-03-21T21:08:24.237Z,59.80
2019-03-21T21:09:24.182Z,61.40
2019-03-21T21:10:24.232Z,65.00
2019-03-21T21:11:24.164Z,63.20
2019-03-21T21:12:24.149Z,64.00
2019-03-21T21:13:24.174Z,65.70
2019-03-21T21:14:24.145Z,64.80
2019-03-21T21:15:24.135Z,64.40
2019-03-21T21:16:24.107Z,65.50
2019-03-21T21:17:24.088Z,64.40
2019-03-21T21:18:24.124Z,65.40
2019-03-21T21:19:24.068Z,67.10
2019-03-21T21:20:24.107Z,67.00
2019-03-21T21:21:24.045Z,66.80
2019-03-21T21:22:24.045Z,66.30
2019-03-21T21:23:24.072Z,66.00
2019-03-21T21:24:24.023Z,67.80
2019-03-21T21:25:24.002Z,68.80
2019-03-21T21:26:24.022Z,67.60
2019-03-21T21:27:23.987Z,69.20
2019-03-21T21:28:24.756Z,69.90
2019-03-21T21:29:23.969Z,68.20
2019-03-21T21:30:23.947Z,65.40
2019-03-21T21:31:23.943Z,68.90
2019-03-21T21:32:24.045Z,69.60
2019-03-21T21:33:23.985Z,69.30
2019-03-21T21:34:23.918Z,67.10
2019-03-21T21:35:23.893Z,68.20
2019-03-21T21:36:23.884Z,67.70
2019-03-21T21:37:23.869Z,70.70
2019-03-21T21:38:23.853Z,68.70
2019-03-21T21:39:23.883Z,71.00
2019-03-21T21:40:23.877Z,68.80
2019-03-21T21:41:23.825Z,69.60
2019-03-21T21:42:23.811Z,73.10
2019-03-21T21:43:23.800Z,72.10
2019-03-21T21:44:23.825Z,71.20
2019-03-21T21:45:23.786Z,70.10
2019-03-21T21:46:23.823Z,71.00
2019-03-21T21:47:23.792Z,70.00
2019-03-21T21:48:23.753Z,70.90
2019-03-21T21:49:23.782Z,69.80
2019-03-21T21:50:23.725Z,70.20
2019-03-21T21:51:23.719Z,69.80
2019-03-21T21:52:23.708Z,73.10
2019-03-21T21:53:23.726Z,72.90
2019-03-21T21:54:23.721Z,71.30
2019-03-21T21:55:23.675Z,72.50
2019-03-21T21:56:23.660Z,71.90
2019-03-21T21:57:23.661Z,72.20
2019-03-21T21:58:23.636Z,73.40
2019-03-21T21:59:23.676Z,71.70
2019-03-21T22:00:23.651Z,72.40
2019-03-21T22:01:23.607Z,74.40
2019-03-21T22:02:23.600Z,70.80
2019-03-21T22:03:23.584Z,73.40
2019-03-21T22:04:23.614Z,76.30
2019-03-21T22:05:23.568Z,74.60
2019-03-21T22:06:23.607Z,78.30
2019-03-21T22:07:23.545Z,75.80
2019-03-21T22:08:23.578Z,76.30
2019-03-21T22:09:23.552Z,77.90
2019-03-21T22:10:23.508Z,76.80
2019-03-21T22:11:23.497Z,77.40
2019-03-21T22:12:23.502Z,76.10
2019-03-21T22:13:23.477Z,74.50
2019-03-21T22:14:23.505Z,78.60
2019-03-21T22:15:23.477Z,76.30
2019-03-21T22:16:23.445Z,78.60
2019-03-21T22:17:23.441Z,78.60
2019-03-21T22:18:23.423Z,75.70
2019-03-21T22:19:23.455Z,80.20
2019-03-21T22:20:23.404Z,79.40
2019-03-21T22:21:23.432Z,80.40
2019-03-21T22:22:23.379Z,80.00
2019-03-21T22:23:23.374Z,78.40
2019-03-21T22:24:23.415Z,79.70
2019-03-21T22:25:23.378Z,80.40
2019-03-21T22:26:29.506Z,79.50
2019-03-21T22:27:23.326Z,81.20
2019-03-21T22:28:23.310Z,79.00
2019-03-21T22:29:23.331Z,79.50
2019-03-21T22:30:23.347Z,79.10
2019-03-21T22:31:23.283Z,80.40
2019-03-21T22:32:23.273Z,78.80
2019-03-21T22:33:23.313Z,80.60
2019-03-21T22:34:23.295Z,79.40
2019-03-21T22:35:23.230Z,78.60
2019-03-21T22:36:23.239Z,79.00
2019-03-21T22:37:23.217Z,82.40
2019-03-21T22:38:23.193Z,77.40
2019-03-21T22:39:23.304Z,78.80
2019-03-21T22:40:23.182Z,81.90
2019-03-21T22:41:23.166Z,81.70
2019-03-21T22:42:23.167Z,82.50
2019-03-21T22:43:23.150Z,80.40
2019-03-21T22:44:23.180Z,81.80
2019-03-21T22:45:23.132Z,80.40
2019-03-21T22:46:23.114Z,82.80
2019-03-21T22:47:23.108Z,83.40
2019-03-21T22:48:23.090Z,82.00
2019-03-21T22:49:23.109Z,87.40
2019-03-21T22:50:23.116Z,82.80
2019-03-21T22:51:23.055Z,81.80
2019-03-21T22:52:23.048Z,82.30
2019-03-21T22:53:23.031Z,84.00
2019-03-21T22:54:23.094Z,83.70
2019-03-21T22:55:23.009Z,86.60
2019-03-21T22:56:23.028Z,86.50
2019-03-21T22:57:23.068Z,81.00
2019-03-21T22:58:31.419Z,85.80
2019-03-21T22:59:24.006Z,81.40
2019-03-21T23:00:22.954Z,83.80
2019-03-21T23:01:22.938Z,81.30
2019-03-21T23:02:22.934Z,83.30
2019-03-21T23:03:22.956Z,81.80
2019-03-21T23:04:22.954Z,83.80
2019-03-21T23:05:22.909Z,85.00
2019-03-21T23:06:22.886Z,82.70
2019-03-21T23:07:22.878Z,84.20
2019-03-21T23:08:22.868Z,85.50
2019-03-21T23:09:22.886Z,84.80
2019-03-21T23:10:22.892Z,85.70
2019-03-21T23:11:22.826Z,82.80
2019-03-21T23:12:22.834Z,81.60
2019-03-21T23:13:22.808Z,83.70
2019-03-21T23:14:22.810Z,84.40
2019-03-21T23:15:22.834Z,80.20
2019-03-21T23:16:22.851Z,79.50
2019-03-21T23:17:22.767Z,80.10
2019-03-21T23:18:22.762Z,80.50
2019-03-21T23:19:22.787Z,82.90
2019-03-21T23:20:22.730Z,83.50
2019-03-21T23:21:22.723Z,85.10
2019-03-21T23:22:22.715Z,86.20
2019-03-21T23:23:22.762Z,82.50
2019-03-21T23:24:22.690Z,86.30
2019-03-21T23:25:22.719Z,82.90
2019-03-21T23:26:22.671Z,86.20
2019-03-21T23:27:22.654Z,88.00
2019-03-21T23:28:22.646Z,87.30
2019-03-21T23:29:22.687Z,84.40
2019-03-21T23:30:22.675Z,86.00
2019-03-21T23:31:22.609Z,89.50
2019-03-21T23:32:22.597Z,86.80
2019-03-21T23:33:22.601Z,84.70
2019-03-21T23:34:22.578Z,88.20
2019-03-21T23:35:22.623Z,86.20
2019-03-21T23:36:22.565Z,89.90
2019-03-21T23:37:22.574Z,87.50
2019-03-21T23:38:22.541Z,90.90
2019-03-21T23:39:22.516Z,88.70
2019-03-21T23:40:22.510Z,90.90
2019-03-21T23:41:22.539Z,92.50
2019-03-21T23:42:22.497Z,85.00
2019-03-21T23:43:22.470Z,85.40
2019-03-21T23:44:22.474Z,86.90
2019-03-21T23:45:22.509Z,87.80
2019-03-21T23:46:22.496Z,92.30
2019-03-21T23:47:22.434Z,87.40
2019-03-21T23:48:22.427Z,86.60
2019-03-21T23:49:22.449Z,83.00
2019-03-21T23:50:22.407Z,84.90
2019-03-21T23:51:22.426Z,84.70
2019-03-21T23:52:22.432Z,85.80
2019-03-21T23:53:22.366Z,83.10
2019-03-21T23:54:22.371Z,84.10
2019-03-21T23:55:22.347Z,83.20
2019-03-21T23:56:22.369Z,85.70
2019-03-21T23:57:22.315Z,83.80
2019-03-21T23:58:22.347Z,79.30
2019-03-21T23:59:22.307Z,79.40
